Weather at Aerodromo de Sao Cosmado [CLOSED]

Public forecast

Using degrees Celsius for public forecast. Weather courtesy of forecast.io.

Closest aviation weather report (METAR) to Aerodromo de Sao Cosmado

Report is more than 6 hours old.

Closest report is Ovar Air Base, 43.8 nm (81.1 km) WSW. Retrieved 2021/01/16 19:00 UTC (7 hours ago):

LPOV 161900Z 36003KT CAVOK 06/04 Q1030

Closest aviation forecast (TAF) to Aerodromo de Sao Cosmado

Forecast is more than 6 hours old.

Closest forecast is Ovar Air Base, 43.8 nm (81.1 km) WSW. Retrieved 2021/01/16 18:12 UTC (8 hours ago):

TAF LPOV 161709Z 1618/1718 VRB02KT CAVOK TEMPO 1612/1619 36008KT PROB30 1622/1709 4000 BR SCT002 BECMG 1712/1714 35010KT